Time;durP1;ratioP1;P1;durP2;ratioP2;P2;SDS_P1;SDS_P2;PMS_P1;PMS_P2;Temp;Humidity;BMP_temperature;BMP_pressure;BME280_temperature;BME280_humidity;BME280_pressure;Samples;Min_cycle;Max_cycle;Signal;HPM_P1;HPM_P2
2022/03/29 00:06:00;;;;;;;;;16.50;16.50;;;;;;;;2;261079027;261079027;-84
2022/03/29 00:15:01;;;;;;;;;34.00;29.50;;;;;;;;2;261076236;261076236;-84
2022/03/29 00:23:18;;;;;;;;;31.50;30.50;;;;;;;;2;261080049;261080049;-84
2022/03/29 00:32:18;;;;;;;;;30.00;25.50;;;;;;;;2;261079981;261079981;-84
2022/03/29 00:40:33;;;;;;;;;31.50;31.00;;;;;;;;2;261078342;261078342;-84
2022/03/29 00:49:34;;;;;;;;;19.50;11.50;;;;;;;;2;261075540;261075540;-84
2022/03/29 00:57:50;;;;;;;;;33.50;25.50;;;;;;;;2;261078688;261078688;-84
2022/03/29 01:06:51;;;;;;;;;40.00;23.00;;;;;;;;2;261077365;261077365;-84
2022/03/29 01:15:08;;;;;;;;;34.00;22.00;;;;;;;;2;261078244;261078244;-84
2022/03/29 01:24:11;;;;;;;;;24.00;20.00;;;;;;;;2;261077956;261077956;-83
2022/03/29 01:32:28;;;;;;;;;40.00;27.50;;;;;;;;2;261078226;261078226;-84
2022/03/29 01:41:30;;;;;;;;;44.00;28.50;;;;;;;;2;261076731;261076731;-84
2022/03/29 01:49:46;;;;;;;;;19.50;19.50;;;;;;;;2;261079305;261079305;-84
2022/03/29 01:58:47;;;;;;;;;32.50;21.50;;;;;;;;2;261075653;261075653;-85
2022/03/29 02:07:02;;;;;;;;;33.50;20.50;;;;;;;;2;261077748;261077748;-83
2022/03/29 02:16:03;;;;;;;;;28.50;17.00;;;;;;;;2;261078231;261078231;-83
2022/03/29 02:24:18;;;;;;;;;26.00;24.00;;;;;;;;2;261078496;261078496;-83
2022/03/29 02:33:18;;;;;;;;;38.50;26.50;;;;;;;;2;261075926;261075926;-83
2022/03/29 02:41:34;;;;;;;;;56.00;29.00;;;;;;;;2;261076966;261076966;-83
2022/03/29 02:50:34;;;;;;;;;26.50;22.50;;;;;;;;2;261075256;261075256;-83
2022/03/29 02:58:50;;;;;;;;;33.00;21.00;;;;;;;;2;261077004;261077004;-82
2022/03/29 03:07:50;;;;;;;;;43.00;22.00;;;;;;;;2;261081331;261081331;-84
2022/03/29 03:16:05;;;;;;;;;28.50;28.50;;;;;;;;2;261075672;261075672;-84
2022/03/29 03:25:06;;;;;;;;;26.50;22.50;;;;;;;;2;261080394;261080394;-85
2022/03/29 03:33:22;;;;;;;;;37.00;22.00;;;;;;;;2;261075867;261075867;-84
2022/03/29 03:42:22;;;;;;;;;32.50;16.50;;;;;;;;2;261076459;261076459;-84
2022/03/29 03:50:38;;;;;;;;;28.50;17.00;;;;;;;;2;261077367;261077367;-84
2022/03/29 03:59:38;;;;;;;;;18.50;18.50;;;;;;;;2;261076448;261076448;-84
2022/03/29 04:07:54;;;;;;;;;30.00;16.00;;;;;;;;2;261074062;261074062;-84
2022/03/29 04:16:54;;;;;;;;;16.50;16.50;;;;;;;;2;261076372;261076372;-84
2022/03/29 04:25:10;;;;;;;;;20.50;20.50;;;;;;;;2;261076369;261076369;-84
2022/03/29 04:34:10;;;;;;;;;26.00;14.00;;;;;;;;2;261076411;261076411;-84
2022/03/29 04:42:26;;;;;;;;;16.50;13.00;;;;;;;;2;261077727;261077727;-84
2022/03/29 04:51:26;;;;;;;;;37.50;13.50;;;;;;;;2;261078206;261078206;-84
2022/03/29 04:59:41;;;;;;;;;22.00;22.00;;;;;;;;2;261080986;261080986;-84
2022/03/29 05:08:42;;;;;;;;;35.50;17.00;;;;;;;;2;261078601;261078601;-84
2022/03/29 05:16:57;;;;;;;;;16.50;12.50;;;;;;;;2;261081942;261081942;-84
2022/03/29 05:25:57;;;;;;;;;27.50;16.50;;;;;;;;2;261076453;261076453;-84
2022/03/29 05:34:16;;;;;;;;;33.00;20.50;;;;;;;;2;261074895;261074895;-83
2022/03/29 05:43:17;;;;;;;;;21.00;18.50;;;;;;;;2;261076853;261076853;-84
2022/03/29 05:51:32;;;;;;;;;16.00;16.00;;;;;;;;2;261079355;261079355;-85
2022/03/29 06:00:33;;;;;;;;;14.50;13.00;;;;;;;;2;261078912;261078912;-85
2022/03/29 06:08:48;;;;;;;;;16.00;16.00;;;;;;;;2;261080799;261080799;-84
2022/03/29 06:17:48;;;;;;;;;15.50;15.50;;;;;;;;2;261074886;261074886;-85
2022/03/29 06:26:04;;;;;;;;;36.50;18.50;;;;;;;;2;261075694;261075694;-85
2022/03/29 06:35:05;;;;;;;;;20.50;20.50;;;;;;;;2;261076792;261076792;-85
2022/03/29 06:43:20;;;;;;;;;19.50;19.50;;;;;;;;2;261078888;261078888;-85
2022/03/29 06:52:26;;;;;;;;;26.50;22.50;;;;;;;;2;261078060;261078060;-84
2022/03/29 07:00:41;;;;;;;;;38.50;15.50;;;;;;;;2;261079714;261079714;-82
2022/03/29 07:18:16;;;;;;;;;22.00;22.00;;;;;;;;2;261076215;261076215;-82
2022/03/29 07:27:17;;;;;;;;;18.00;18.00;;;;;;;;2;261075888;261075888;-82
2022/03/29 07:35:33;;;;;;;;;28.50;28.00;;;;;;;;2;261075472;261075472;-82
2022/03/29 07:44:33;;;;;;;;;25.00;25.00;;;;;;;;2;261082179;261082179;-84
2022/03/29 07:52:50;;;;;;;;;41.00;25.00;;;;;;;;2;261078742;261078742;-82
2022/03/29 08:01:50;;;;;;;;;26.00;26.00;;;;;;;;2;261074094;261074094;-82
2022/03/29 08:10:06;;;;;;;;;31.00;29.00;;;;;;;;2;261079168;261079168;-82
2022/03/29 08:19:06;;;;;;;;;40.50;24.00;;;;;;;;2;261076885;261076885;-83
2022/03/29 08:27:22;;;;;;;;;32.50;24.50;;;;;;;;2;261079774;261079774;-82
2022/03/29 08:36:22;;;;;;;;;23.50;23.50;;;;;;;;2;261078457;261078457;-83
2022/03/29 08:44:39;;;;;;;;;34.00;25.00;;;;;;;;2;261078402;261078402;-82
2022/03/29 08:57:01;;;;;;;;;35.50;26.50;;;;;;;;2;261083552;261083552;-83
2022/03/29 09:05:21;;;;;;;;;30.50;21.00;;;;;;;;2;261082383;261082383;-84
2022/03/29 09:14:23;;;;;;;;;54.50;28.00;;;;;;;;2;261075414;261075414;-85
2022/03/29 09:22:39;;;;;;;;;28.50;28.00;;;;;;;;2;261075252;261075252;-85
2022/03/29 09:31:39;;;;;;;;;36.00;27.00;;;;;;;;2;261080643;261080643;-84
2022/03/29 09:39:55;;;;;;;;;43.00;27.00;;;;;;;;2;261078068;261078068;-83
2022/03/29 09:48:59;;;;;;;;;33.00;29.50;;;;;;;;2;261078585;261078585;-84
2022/03/29 09:57:15;;;;;;;;;30.50;25.50;;;;;;;;2;261080154;261080154;-84
2022/03/29 10:06:17;;;;;;;;;31.50;27.00;;;;;;;;2;261082175;261082175;-84
2022/03/29 10:14:34;;;;;;;;;36.00;29.50;;;;;;;;2;261077408;261077408;-85
2022/03/29 10:23:36;;;;;;;;;36.00;25.50;;;;;;;;2;261080360;261080360;-84
2022/03/29 10:31:51;;;;;;;;;42.50;25.00;;;;;;;;2;261080324;261080324;-84
2022/03/29 10:40:51;;;;;;;;;46.00;32.00;;;;;;;;2;261078761;261078761;-84
2022/03/29 10:49:28;;;;;;;;;49.50;28.00;;;;;;;;2;261080499;261080499;-84
2022/03/29 10:58:28;;;;;;;;;38.50;32.50;;;;;;;;2;261077467;261077467;-83
2022/03/29 11:07:02;;;;;;;;;36.00;31.50;;;;;;;;2;261079763;261079763;-84
2022/03/29 11:16:21;;;;;;;;;23.00;23.00;;;;;;;;2;261078783;261078783;-83
2022/03/29 11:24:37;;;;;;;;;26.50;26.50;;;;;;;;2;261080210;261080210;-82
2022/03/29 11:33:39;;;;;;;;;15.00;15.00;;;;;;;;2;261080416;261080416;-82
2022/03/29 11:41:54;;;;;;;;;48.00;37.00;;;;;;;;2;261077156;261077156;-83
2022/03/29 11:50:57;;;;;;;;;43.00;26.00;;;;;;;;2;261078782;261078782;-83
2022/03/29 11:59:14;;;;;;;;;32.50;28.00;;;;;;;;2;261078857;261078857;-84
2022/03/29 12:08:18;;;;;;;;;42.50;26.50;;;;;;;;2;261080466;261080466;-83
2022/03/29 12:16:37;;;;;;;;;30.00;25.50;;;;;;;;2;261081123;261081123;-81
2022/03/29 12:25:38;;;;;;;;;35.50;23.50;;;;;;;;2;261081507;261081507;-81
2022/03/29 12:33:53;;;;;;;;;30.50;28.50;;;;;;;;2;261078823;261078823;-83
2022/03/29 12:43:01;;;;;;;;;31.00;29.50;;;;;;;;2;261079548;261079548;-81
2022/03/29 12:51:30;;;;;;;;;19.00;16.00;;;;;;;;2;261076625;261076625;-81
2022/03/29 13:00:41;;;;;;;;;23.00;20.00;;;;;;;;2;261079386;261079386;-83
2022/03/29 13:09:02;;;;;;;;;22.00;18.50;;;;;;;;2;261082366;261082366;-83
2022/03/29 13:18:04;;;;;;;;;39.50;25.00;;;;;;;;2;261078180;261078180;-82
2022/03/29 13:26:20;;;;;;;;;25.50;25.50;;;;;;;;2;261080163;261080163;-82
2022/03/29 13:35:21;;;;;;;;;30.50;22.50;;;;;;;;2;261079188;261079188;-82
2022/03/29 13:43:37;;;;;;;;;37.00;31.50;;;;;;;;2;261076033;261076033;-85
2022/03/29 13:52:38;;;;;;;;;22.00;22.00;;;;;;;;2;261078160;261078160;-85
2022/03/29 14:00:54;;;;;;;;;18.50;18.50;;;;;;;;2;261074216;261074216;-85
2022/03/29 14:09:55;;;;;;;;;23.00;23.00;;;;;;;;2;261074765;261074765;-85
2022/03/29 14:18:11;;;;;;;;;39.50;15.00;;;;;;;;2;261078779;261078779;-85
2022/03/29 14:27:12;;;;;;;;;14.00;10.00;;;;;;;;2;261077231;261077231;-85
2022/03/29 14:35:31;;;;;;;;;15.00;15.00;;;;;;;;2;261078092;261078092;-85
2022/03/29 14:44:31;;;;;;;;;16.50;16.50;;;;;;;;2;261082742;261082742;-85
2022/03/29 14:52:47;;;;;;;;;26.00;14.00;;;;;;;;2;261077383;261077383;-85
2022/03/29 15:01:48;;;;;;;;;26.50;14.50;;;;;;;;2;261073938;261073938;-83
2022/03/29 15:10:03;;;;;;;;;14.00;11.00;;;;;;;;2;261079973;261079973;-84
2022/03/29 15:19:04;;;;;;;;;43.50;16.50;;;;;;;;2;261076352;261076352;-85
2022/03/29 15:27:20;;;;;;;;;14.50;13.00;;;;;;;;2;261078358;261078358;-85
2022/03/29 15:36:21;;;;;;;;;25.50;16.50;;;;;;;;2;261075292;261075292;-84
2022/03/29 15:44:37;;;;;;;;;29.50;18.00;;;;;;;;2;261079791;261079791;-86
2022/03/29 15:53:38;;;;;;;;;13.50;13.50;;;;;;;;2;261077256;261077256;-86
2022/03/29 16:01:53;;;;;;;;;24.50;16.50;;;;;;;;2;261081223;261081223;-86
2022/03/29 16:10:54;;;;;;;;;17.50;17.50;;;;;;;;2;261078195;261078195;-87
2022/03/29 16:19:10;;;;;;;;;26.00;14.00;;;;;;;;2;261078661;261078661;-87
2022/03/29 16:28:12;;;;;;;;;30.50;29.50;;;;;;;;2;261076381;261076381;-88
2022/03/29 16:36:28;;;;;;;;;21.50;18.50;;;;;;;;2;261078495;261078495;-87
2022/03/29 16:45:29;;;;;;;;;17.00;17.00;;;;;;;;2;261079936;261079936;-88
2022/03/29 16:53:45;;;;;;;;;11.50;11.50;;;;;;;;2;261084792;261084792;-87
2022/03/29 17:02:45;;;;;;;;;36.00;15.50;;;;;;;;2;261084942;261084942;-85
2022/03/29 17:11:01;;;;;;;;;14.50;13.00;;;;;;;;2;261078900;261078900;-86
2022/03/29 17:20:02;;;;;;;;;38.00;19.00;;;;;;;;2;261078185;261078185;-87
2022/03/29 17:28:18;;;;;;;;;24.50;15.50;;;;;;;;2;261076934;261076934;-85
2022/03/29 17:37:19;;;;;;;;;13.00;10.00;;;;;;;;2;261078972;261078972;-84
2022/03/29 17:45:34;;;;;;;;;15.00;15.00;;;;;;;;2;261079654;261079654;-86
2022/03/29 17:54:35;;;;;;;;;12.00;12.00;;;;;;;;2;261078558;261078558;-86
2022/03/29 18:02:50;;;;;;;;;16.50;13.50;;;;;;;;2;261076166;261076166;-86
2022/03/29 18:11:51;;;;;;;;;17.50;13.50;;;;;;;;2;261077477;261077477;-86
2022/03/29 18:20:08;;;;;;;;;27.00;15.50;;;;;;;;2;261075799;261075799;-86
2022/03/29 18:29:08;;;;;;;;;18.00;18.00;;;;;;;;2;261072455;261072455;-86
2022/03/29 18:37:24;;;;;;;;;23.00;19.00;;;;;;;;2;261077332;261077332;-86
2022/03/29 18:46:24;;;;;;;;;17.00;8.00;;;;;;;;2;261079474;261079474;-86
2022/03/29 18:54:41;;;;;;;;;18.50;15.00;;;;;;;;2;261074528;261074528;-87
2022/03/29 19:03:41;;;;;;;;;17.00;17.00;;;;;;;;2;261075249;261075249;-86
2022/03/29 19:11:57;;;;;;;;;19.50;16.50;;;;;;;;2;261073969;261073969;-87
2022/03/29 19:20:57;;;;;;;;;12.50;12.50;;;;;;;;2;261077210;261077210;-87
2022/03/29 19:29:13;;;;;;;;;19.00;15.00;;;;;;;;2;261076923;261076923;-86
2022/03/29 19:38:15;;;;;;;;;23.00;12.50;;;;;;;;2;261077677;261077677;-86
2022/03/29 19:46:43;;;;;;;;;18.00;18.00;;;;;;;;2;261074496;261074496;-86
2022/03/29 19:55:44;;;;;;;;;18.00;14.00;;;;;;;;2;261079658;261079658;-86
2022/03/29 20:03:59;;;;;;;;;24.00;20.00;;;;;;;;2;261077598;261077598;-86
2022/03/29 20:13:00;;;;;;;;;16.50;16.50;;;;;;;;2;261077582;261077582;-86
2022/03/29 20:21:16;;;;;;;;;29.00;18.00;;;;;;;;2;261081930;261081930;-85
2022/03/29 20:30:16;;;;;;;;;45.50;26.00;;;;;;;;2;261080344;261080344;-86
2022/03/29 20:38:32;;;;;;;;;19.00;19.00;;;;;;;;2;261077430;261077430;-86
2022/03/29 20:47:34;;;;;;;;;19.50;15.50;;;;;;;;2;261078027;261078027;-86
2022/03/29 20:55:49;;;;;;;;;43.50;28.00;;;;;;;;2;261075921;261075921;-87
2022/03/29 21:04:51;;;;;;;;;38.50;26.50;;;;;;;;2;261078379;261078379;-87
2022/03/29 21:13:07;;;;;;;;;31.00;26.50;;;;;;;;2;261076062;261076062;-87
2022/03/29 21:22:07;;;;;;;;;38.00;15.50;;;;;;;;2;261077413;261077413;-87
2022/03/29 21:30:23;;;;;;;;;26.50;15.50;;;;;;;;2;261077785;261077785;-87
2022/03/29 21:39:23;;;;;;;;;21.00;21.00;;;;;;;;2;261075336;261075336;-87
2022/03/29 21:47:42;;;;;;;;;38.50;23.50;;;;;;;;2;261075556;261075556;-85
2022/03/29 21:56:42;;;;;;;;;33.00;20.00;;;;;;;;2;261076813;261076813;-86
2022/03/29 22:04:58;;;;;;;;;18.00;18.00;;;;;;;;2;261077135;261077135;-87
2022/03/29 22:13:58;;;;;;;;;35.50;23.50;;;;;;;;2;261076065;261076065;-87
2022/03/29 22:22:14;;;;;;;;;20.50;20.50;;;;;;;;2;261076666;261076666;-86
2022/03/29 22:31:14;;;;;;;;;22.00;20.00;;;;;;;;2;261077186;261077186;-86
2022/03/29 22:39:30;;;;;;;;;20.50;20.50;;;;;;;;2;261075218;261075218;-84
2022/03/29 22:48:30;;;;;;;;;30.50;22.50;;;;;;;;2;261076481;261076481;-84
2022/03/29 23:06:04;;;;;;;;;25.00;25.00;;;;;;;;2;261074964;261074964;-83
2022/03/29 23:14:20;;;;;;;;;42.50;28.00;;;;;;;;2;261076702;261076702;-83
2022/03/29 23:23:20;;;;;;;;;38.00;34.50;;;;;;;;2;261074744;261074744;-83
2022/03/29 23:31:36;;;;;;;;;49.50;28.50;;;;;;;;2;261077492;261077492;-83
2022/03/29 23:40:36;;;;;;;;;44.50;31.50;;;;;;;;2;261076632;261076632;-83
2022/03/29 23:48:52;;;;;;;;;37.00;31.50;;;;;;;;2;261076538;261076538;-83
2022/03/29 23:57:52;;;;;;;;;44.00;38.50;;;;;;;;2;261075460;261075460;-83
